Homestead ARB Airport
KHST : now visible

Airfield :











YOU CAN JOIN US ON...

 
LOGIN :

Register | Disclaimer

   EN    FR    IT 

 









Legend :    VFR   Marginal VFR   IFR   Intensive IFR   Very Intensive IFR
Visi :
Ceiling :
>= 8 km
>= 3000ft
5 to 8 km
1000 to 3000 ft
1500m to 5 km
500 to 1000 ft
800 to 1500m
200 to 500 ft
< 800m
< 200 ft
Symbols :   Thunderstorms  Fog  Heavy snow  Heavy precipitations  Wind > 20 kt






- Airport Elevation : 5 ft


KHST - Homestead ARB

CURRENT METAR :
  • 291344Z AUTO 00000KT 10SM -RA SCT023 BKN042 29/24 A3012 RMK AO2 RAB44 SLP203

EXPIRED METARs :
  • 291256Z AUTO 00000KT 10SM CLR 28/24 A3011 RMK AO2 SLP200 T02840239
  • 291156Z AUTO 36003KT 10SM CLR 27/24 A3009 RMK AO2 SLP193 70010 T02660238 10266 20242 52012
  • 291056Z AUTO 00000KT 10SM FEW022 25/24 A3008 RMK AO2 SLP189 T02510235

TAF TAF KHST
Valid from the 29 at 11:00 until the 30 at 17:00 UTC


291100Z 2911/3017 VRB06KT 9999 SCT025 QNH3007INS
BECMG 2917/2918 15009KT 8000 -SHRA VCTS SCT020CB SCT040 SCT080 QNH3008INS
BECMG 2923/2924 11006KT 9999 NSW SCT025 SCT040 QNH3008INS
BECMG 3005/3006 VRB06KT 9999 VCSH SCT025 BKN040 BKN120 QNH3007INS TX32/2919Z TN25/2911Z
KZMA FIR / North America



MET'MAP, your aeronautical weather chart ! - Copyright ORBIFLY December 2007 - Disclaimer

ORBIFLY MET'MAP TEAM :

Programming & Development : Alexandra Zaïnal
Original concept : Baudouin d'Aumeries
Technical & hardware support : Manuel Goepfert
Assistance : Marc-Olivier Méhu




SOURCES & CREDITS :

   NOAA       Earth
Advisory